sensor_id;sensor_type;location;lat;lon;timestamp;pressure;altitude;pressure_sealevel;temperature;humidity
13241;BME280;6687;47.790;7.322;2023-04-01T06:11:22;97911.00;;;10.32;89.91
13241;BME280;6687;47.790;7.322;2023-04-01T06:14:18;97903.47;;;10.15;90.46
13241;BME280;6687;47.790;7.322;2023-04-01T06:16:59;97896.00;;;9.92;91.71
13241;BME280;6687;47.790;7.322;2023-04-01T06:19:36;97894.00;;;10.12;89.85
13241;BME280;6687;47.790;7.322;2023-04-01T06:22:21;97899.97;;;10.18;90.25
13241;BME280;6687;47.790;7.322;2023-04-01T06:25:18;97898.13;;;10.24;89.67
13241;BME280;6687;47.790;7.322;2023-04-01T06:28:01;97888.75;;;10.19;90.92
13241;BME280;6687;47.790;7.322;2023-04-01T06:30:40;97899.88;;;10.24;90.81
13241;BME280;6687;47.790;7.322;2023-04-01T06:33:32;97895.13;;;10.57;87.30
13241;BME280;6687;47.790;7.322;2023-04-01T06:36:21;97894.72;;;10.22;89.66
13241;BME280;6687;47.790;7.322;2023-04-01T06:39:05;97892.22;;;10.16;90.03
13241;BME280;6687;47.790;7.322;2023-04-01T06:41:57;97900.56;;;10.38;89.51
13241;BME280;6687;47.790;7.322;2023-04-01T06:44:37;97904.91;;;10.38;88.23
13241;BME280;6687;47.790;7.322;2023-04-01T06:47:23;97907.66;;;10.24;88.58
13241;BME280;6687;47.790;7.322;2023-04-01T06:50:01;97907.66;;;10.24;89.24
13241;BME280;6687;47.790;7.322;2023-04-01T06:52:37;97912.00;;;10.20;89.18
13241;BME280;6687;47.790;7.322;2023-04-01T06:55:22;97902.72;;;10.05;91.57
13241;BME280;6687;47.790;7.322;2023-04-01T06:57:53;97913.72;;;10.23;91.80
13241;BME280;6687;47.790;7.322;2023-04-01T07:00:27;97909.50;;;10.15;92.46
13241;BME280;6687;47.790;7.322;2023-04-01T07:03:04;97910.81;;;9.79;95.33
13241;BME280;6687;47.790;7.322;2023-04-01T07:05:33;97899.28;;;10.05;93.02
13241;BME280;6687;47.790;7.322;2023-04-01T07:08:02;97918.63;;;9.74;94.45
13241;BME280;6687;47.790;7.322;2023-04-01T07:10:35;97923.00;;;10.39;90.51
13241;BME280;6687;47.790;7.322;2023-04-01T07:13:13;97923.25;;;10.21;91.48
13241;BME280;6687;47.790;7.322;2023-04-01T07:15:57;97921.25;;;10.40;90.27
13241;BME280;6687;47.790;7.322;2023-04-01T07:18:32;97928.22;;;10.36;90.11
13241;BME280;6687;47.790;7.322;2023-04-01T07:21:01;97934.66;;;10.04;92.31
13241;BME280;6687;47.790;7.322;2023-04-01T07:23:31;97940.56;;;10.15;90.90
13241;BME280;6687;47.790;7.322;2023-04-01T07:26:01;97935.22;;;10.26;92.47
13241;BME280;6687;47.790;7.322;2023-04-01T07:28:32;97944.38;;;10.53;88.90
13241;BME280;6687;47.790;7.322;2023-04-01T07:31:10;97943.66;;;10.42;90.99
13241;BME280;6687;47.790;7.322;2023-04-01T07:33:47;97930.56;;;10.53;88.57
13241;BME280;6687;47.790;7.322;2023-04-01T07:36:24;97930.78;;;10.38;90.95
13241;BME280;6687;47.790;7.322;2023-04-01T07:39:06;97932.69;;;10.82;86.59
13241;BME280;6687;47.790;7.322;2023-04-01T07:41:45;97922.78;;;10.54;88.54
13241;BME280;6687;47.790;7.322;2023-04-01T07:44:24;97925.53;;;10.98;84.80
13241;BME280;6687;47.790;7.322;2023-04-01T07:47:11;97931.97;;;10.74;88.47
13241;BME280;6687;47.790;7.322;2023-04-01T07:49:49;97937.97;;;10.76;89.13
13241;BME280;6687;47.790;7.322;2023-04-01T07:52:21;97943.78;;;10.92;88.12
13241;BME280;6687;47.790;7.322;2023-04-01T07:54:52;97951.84;;;10.75;87.71
13241;BME280;6687;47.790;7.322;2023-04-01T07:57:23;97950.91;;;10.78;88.91
13241;BME280;6687;47.790;7.322;2023-04-01T07:59:59;97946.41;;;10.90;87.41
13241;BME280;6687;47.790;7.322;2023-04-01T08:02:38;97951.44;;;11.00;86.47
13241;BME280;6687;47.790;7.322;2023-04-01T08:05:18;97959.66;;;11.26;82.96
13241;BME280;6687;47.790;7.322;2023-04-01T08:07:53;97958.03;;;11.19;84.07
13241;BME280;6687;47.790;7.322;2023-04-01T08:10:25;97957.00;;;11.29;82.75
13241;BME280;6687;47.790;7.322;2023-04-01T08:13:03;97961.47;;;11.21;83.44
13241;BME280;6687;47.790;7.322;2023-04-01T08:15:37;97965.91;;;11.14;83.98
13241;BME280;6687;47.790;7.322;2023-04-01T08:18:18;97968.25;;;11.28;83.28
13241;BME280;6687;47.790;7.322;2023-04-01T08:20:50;97972.06;;;11.06;84.65
13241;BME280;6687;47.790;7.322;2023-04-01T08:23:19;97967.38;;;11.29;83.03
13241;BME280;6687;47.790;7.322;2023-04-01T08:25:52;97976.91;;;11.27;84.58
13241;BME280;6687;47.790;7.322;2023-04-01T08:28:23;97963.22;;;11.19;85.83
13241;BME280;6687;47.790;7.322;2023-04-01T08:30:53;97970.84;;;11.28;83.97
13241;BME280;6687;47.790;7.322;2023-04-01T08:33:25;97972.44;;;10.84;86.47
13241;BME280;6687;47.790;7.322;2023-04-01T08:35:56;97967.34;;;11.31;83.28
13241;BME280;6687;47.790;7.322;2023-04-01T08:38:30;97965.91;;;11.14;86.75
13241;BME280;6687;47.790;7.322;2023-04-01T08:40:59;97969.75;;;11.42;84.72
13241;BME280;6687;47.790;7.322;2023-04-01T08:43:43;97968.19;;;11.31;83.38
13241;BME280;6687;47.790;7.322;2023-04-01T08:46:34;97969.31;;;11.17;84.88
13241;BME280;6687;47.790;7.322;2023-04-01T08:49:15;97973.56;;;11.22;86.53
13241;BME280;6687;47.790;7.322;2023-04-01T08:55:14;97973.16;;;10.92;88.52
13241;BME280;6687;47.790;7.322;2023-04-01T08:58:08;97964.25;;;11.09;88.14
13241;BME280;6687;47.790;7.322;2023-04-01T09:00:49;97979.81;;;11.07;89.29
13241;BME280;6687;47.790;7.322;2023-04-01T09:03:36;97969.78;;;10.87;92.23
13241;BME280;6687;47.790;7.322;2023-04-01T09:06:19;97977.75;;;10.75;94.55
13241;BME280;6687;47.790;7.322;2023-04-01T09:09:06;97978.41;;;10.88;93.56
13241;BME280;6687;47.790;7.322;2023-04-01T09:11:52;97965.72;;;10.71;94.26
13241;BME280;6687;47.790;7.322;2023-04-01T09:14:44;97973.19;;;10.89;94.79
13241;BME280;6687;47.790;7.322;2023-04-01T09:17:28;97972.00;;;10.54;96.14
13241;BME280;6687;47.790;7.322;2023-04-01T09:20:08;97976.28;;;10.57;97.15
13241;BME280;6687;47.790;7.322;2023-04-01T09:23:15;97968.09;;;10.85;94.22
13241;BME280;6687;47.790;7.322;2023-04-01T09:25:55;97988.84;;;10.85;94.52
13241;BME280;6687;47.790;7.322;2023-04-01T09:28:28;97984.19;;;11.04;91.78
13241;BME280;6687;47.790;7.322;2023-04-01T09:31:38;97981.16;;;10.77;94.90
13241;BME280;6687;47.790;7.322;2023-04-01T09:34:30;97978.56;;;10.77;95.50
13241;BME280;6687;47.790;7.322;2023-04-01T09:37:26;97990.47;;;10.90;93.89
13241;BME280;6687;47.790;7.322;2023-04-01T09:40:18;97988.94;;;10.79;93.75
13241;BME280;6687;47.790;7.322;2023-04-01T09:43:01;98000.03;;;10.85;95.72
13241;BME280;6687;47.790;7.322;2023-04-01T09:45:37;98000.97;;;10.81;95.56
13241;BME280;6687;47.790;7.322;2023-04-01T09:48:16;98000.22;;;10.73;94.34
13241;BME280;6687;47.790;7.322;2023-04-01T09:50:53;98009.47;;;10.89;94.57
13241;BME280;6687;47.790;7.322;2023-04-01T09:53:34;98017.06;;;11.02;92.19
13241;BME280;6687;47.790;7.322;2023-04-01T09:56:23;98000.25;;;10.70;95.15
13241;BME280;6687;47.790;7.322;2023-04-01T09:59:12;98006.22;;;10.77;94.18
13241;BME280;6687;47.790;7.322;2023-04-01T10:01:56;98016.47;;;10.84;93.81
13241;BME280;6687;47.790;7.322;2023-04-01T10:05:08;98019.31;;;10.66;96.22
13241;BME280;6687;47.790;7.322;2023-04-01T10:08:02;98012.88;;;10.93;95.05
13241;BME280;6687;47.790;7.322;2023-04-01T10:10:48;98010.13;;;11.04;95.44
13241;BME280;6687;47.790;7.322;2023-04-01T10:13:46;98014.84;;;11.34;91.46
13241;BME280;6687;47.790;7.322;2023-04-01T10:16:49;98025.94;;;10.88;94.47
13241;BME280;6687;47.790;7.322;2023-04-01T10:19:49;98020.31;;;11.16;93.43
13241;BME280;6687;47.790;7.322;2023-04-01T10:22:50;98025.47;;;10.59;95.24
13241;BME280;6687;47.790;7.322;2023-04-01T10:28:34;98013.44;;;11.12;92.47
13241;BME280;6687;47.790;7.322;2023-04-01T10:31:54;98019.09;;;10.81;95.25
13241;BME280;6687;47.790;7.322;2023-04-01T10:34:56;98023.34;;;10.87;94.36
13241;BME280;6687;47.790;7.322;2023-04-01T10:37:47;98018.91;;;10.93;95.62
13241;BME280;6687;47.790;7.322;2023-04-01T10:40:38;98024.91;;;10.99;93.45
13241;BME280;6687;47.790;7.322;2023-04-01T10:43:57;98015.91;;;10.62;95.33
13241;BME280;6687;47.790;7.322;2023-04-01T10:47:08;98021.03;;;10.67;94.70
13241;BME280;6687;47.790;7.322;2023-04-01T10:50:23;98000.31;;;10.67;96.00
13241;BME280;6687;47.790;7.322;2023-04-01T10:53:15;98010.72;;;10.64;96.36
13241;BME280;6687;47.790;7.322;2023-04-01T10:56:42;98016.78;;;10.61;97.47
13241;BME280;6687;47.790;7.322;2023-04-01T11:05:35;98015.47;;;10.94;97.46
13241;BME280;6687;47.790;7.322;2023-04-01T11:11:24;98021.88;;;11.26;94.88
13241;BME280;6687;47.790;7.322;2023-04-01T11:17:20;98037.59;;;11.14;95.55
13241;BME280;6687;47.790;7.322;2023-04-01T11:23:15;98051.13;;;11.34;92.38
13241;BME280;6687;47.790;7.322;2023-04-01T11:25:55;98047.03;;;11.20;94.79
13241;BME280;6687;47.790;7.322;2023-04-01T11:31:43;98033.09;;;11.28;96.72
13241;BME280;6687;47.790;7.322;2023-04-01T11:34:20;98032.16;;;11.32;96.53
13241;BME280;6687;47.790;7.322;2023-04-01T11:36:57;98028.38;;;11.52;93.30
13241;BME280;6687;47.790;7.322;2023-04-01T11:39:34;98028.38;;;11.52;94.97
13241;BME280;6687;47.790;7.322;2023-04-01T11:42:19;98021.22;;;11.66;95.67
13241;BME280;6687;47.790;7.322;2023-04-01T11:44:58;98019.81;;;11.97;91.29
13241;BME280;6687;47.790;7.322;2023-04-01T11:48:04;98018.88;;;11.99;90.46
13241;BME280;6687;47.790;7.322;2023-04-01T11:50:46;98021.28;;;12.10;89.91
13241;BME280;6687;47.790;7.322;2023-04-01T11:53:31;98024.56;;;11.71;94.47
13241;BME280;6687;47.790;7.322;2023-04-01T11:56:13;98030.81;;;11.60;95.09
13241;BME280;6687;47.790;7.322;2023-04-01T11:58:58;98025.63;;;12.09;94.74
13241;BME280;6687;47.790;7.322;2023-04-01T12:01:35;98020.66;;;11.97;95.74
13241;BME280;6687;47.790;7.322;2023-04-01T12:04:27;98025.00;;;12.40;91.65
13241;BME280;6687;47.790;7.322;2023-04-01T12:07:02;98019.00;;;12.38;91.31
13241;BME280;6687;47.790;7.322;2023-04-01T12:09:37;98025.19;;;12.31;91.48
13241;BME280;6687;47.790;7.322;2023-04-01T12:12:16;98023.66;;;12.21;91.94
13241;BME280;6687;47.790;7.322;2023-04-01T12:14:50;98037.59;;;12.17;93.15
13241;BME280;6687;47.790;7.322;2023-04-01T12:17:29;98023.50;;;12.30;91.41
13241;BME280;6687;47.790;7.322;2023-04-01T12:20:01;98020.66;;;12.41;91.02
13241;BME280;6687;47.790;7.322;2023-04-01T12:22:44;98016.56;;;12.71;86.96
13241;BME280;6687;47.790;7.322;2023-04-01T12:25:25;98017.22;;;12.79;86.87
13241;BME280;6687;47.790;7.322;2023-04-01T12:28:03;98015.84;;;13.03;85.19
13241;BME280;6687;47.790;7.322;2023-04-01T12:30:42;98020.31;;;12.97;84.42
13241;BME280;6687;47.790;7.322;2023-04-01T12:33:32;98011.69;;;12.94;83.79
13241;BME280;6687;47.790;7.322;2023-04-01T12:36:12;98014.13;;;13.02;84.37
13241;BME280;6687;47.790;7.322;2023-04-01T12:38:50;98011.97;;;13.20;83.30
13241;BME280;6687;47.790;7.322;2023-04-01T12:41:24;98016.84;;;12.98;83.38
13241;BME280;6687;47.790;7.322;2023-04-01T12:44:23;98007.66;;;13.19;82.54
13241;BME280;6687;47.790;7.322;2023-04-01T12:47:06;97994.75;;;13.16;81.62
13241;BME280;6687;47.790;7.322;2023-04-01T12:50:16;97999.00;;;13.54;80.42
13241;BME280;6687;47.790;7.322;2023-04-01T12:53:00;97998.59;;;13.71;79.83
13241;BME280;6687;47.790;7.322;2023-04-01T12:55:38;97999.09;;;13.84;80.25
13241;BME280;6687;47.790;7.322;2023-04-01T12:58:22;98006.22;;;14.08;78.43
13241;BME280;6687;47.790;7.322;2023-04-01T13:01:24;97995.25;;;13.66;78.05
13241;BME280;6687;47.790;7.322;2023-04-01T13:04:31;98009.78;;;14.06;78.27
13241;BME280;6687;47.790;7.322;2023-04-01T13:07:26;98000.06;;;14.12;79.23
13241;BME280;6687;47.790;7.322;2023-04-01T13:10:04;98004.81;;;14.28;78.85
13241;BME280;6687;47.790;7.322;2023-04-01T13:12:56;98000.16;;;14.39;76.68
13241;BME280;6687;47.790;7.322;2023-04-01T13:15:30;98005.81;;;14.24;75.15
13241;BME280;6687;47.790;7.322;2023-04-01T13:18:04;97998.56;;;14.65;74.54
13241;BME280;6687;47.790;7.322;2023-04-01T13:20:44;98005.16;;;14.47;74.17
13241;BME280;6687;47.790;7.322;2023-04-01T13:23:27;97990.28;;;14.50;73.24
13241;BME280;6687;47.790;7.322;2023-04-01T13:26:04;97996.31;;;14.82;72.48
13241;BME280;6687;47.790;7.322;2023-04-01T13:28:39;97991.19;;;14.79;72.06
13241;BME280;6687;47.790;7.322;2023-04-01T13:31:11;97991.44;;;14.70;71.14
13241;BME280;6687;47.790;7.322;2023-04-01T13:33:46;97992.56;;;14.91;70.85
13241;BME280;6687;47.790;7.322;2023-04-01T13:36:22;97993.50;;;14.88;70.45
13241;BME280;6687;47.790;7.322;2023-04-01T13:39:04;97989.50;;;15.05;70.67
13241;BME280;6687;47.790;7.322;2023-04-01T13:41:50;97993.59;;;14.85;70.66
13241;BME280;6687;47.790;7.322;2023-04-01T13:44:29;98015.31;;;14.56;72.13
13241;BME280;6687;47.790;7.322;2023-04-01T13:47:17;98029.47;;;14.47;73.81
13241;BME280;6687;47.790;7.322;2023-04-01T13:50:12;98046.00;;;13.48;80.43
13241;BME280;6687;47.790;7.322;2023-04-01T13:53:03;98055.25;;;12.85;85.01
13241;BME280;6687;47.790;7.322;2023-04-01T13:55:43;98048.41;;;12.79;87.57
13241;BME280;6687;47.790;7.322;2023-04-01T13:58:43;98034.34;;;12.89;87.74
13241;BME280;6687;47.790;7.322;2023-04-01T14:01:25;98034.34;;;13.27;86.62
13241;BME280;6687;47.790;7.322;2023-04-01T14:07:14;98033.94;;;13.45;84.11
13241;BME280;6687;47.790;7.322;2023-04-01T14:09:57;98032.38;;;13.38;85.54
13241;BME280;6687;47.790;7.322;2023-04-01T14:12:30;98030.44;;;13.46;84.38
13241;BME280;6687;47.790;7.322;2023-04-01T14:15:14;98018.63;;;13.67;82.54
13241;BME280;6687;47.790;7.322;2023-04-01T14:17:56;98008.38;;;13.61;81.16
13241;BME280;6687;47.790;7.322;2023-04-01T14:20:32;98004.47;;;13.78;81.98
13241;BME280;6687;47.790;7.322;2023-04-01T14:23:17;98003.19;;;13.92;81.77
13241;BME280;6687;47.790;7.322;2023-04-01T14:25:56;98010.97;;;13.94;80.02
13241;BME280;6687;47.790;7.322;2023-04-01T14:28:31;97996.38;;;13.88;80.51
13241;BME280;6687;47.790;7.322;2023-04-01T14:31:27;98000.31;;;14.03;79.27
13241;BME280;6687;47.790;7.322;2023-04-01T14:34:09;98005.72;;;13.96;78.60
13241;BME280;6687;47.790;7.322;2023-04-01T14:36:50;98004.97;;;13.90;79.47
13241;BME280;6687;47.790;7.322;2023-04-01T14:42:33;97996.75;;;14.06;78.95
13241;BME280;6687;47.790;7.322;2023-04-01T14:45:24;98000.72;;;13.88;78.78
13241;BME280;6687;47.790;7.322;2023-04-01T14:47:54;98009.81;;;14.04;78.44
13241;BME280;6687;47.790;7.322;2023-04-01T14:50:25;98012.13;;;14.17;77.21
13241;BME280;6687;47.790;7.322;2023-04-01T14:52:57;98006.72;;;14.23;76.49
13241;BME280;6687;47.790;7.322;2023-04-01T14:55:31;98006.34;;;14.05;77.10
13241;BME280;6687;47.790;7.322;2023-04-01T14:58:10;98004.06;;;13.93;76.60
13241;BME280;6687;47.790;7.322;2023-04-01T15:03:39;98002.50;;;14.19;74.69
13241;BME280;6687;47.790;7.322;2023-04-01T15:06:39;98008.66;;;14.46;74.03
13241;BME280;6687;47.790;7.322;2023-04-01T15:09:15;98000.28;;;14.66;72.63
13241;BME280;6687;47.790;7.322;2023-04-01T15:11:54;98007.09;;;14.70;71.22
13241;BME280;6687;47.790;7.322;2023-04-01T15:17:31;98010.31;;;15.35;70.88
13241;BME280;6687;47.790;7.322;2023-04-01T15:20:14;98009.59;;;15.56;70.67
13241;BME280;6687;47.790;7.322;2023-04-01T15:23:01;98017.47;;;15.55;70.01
13241;BME280;6687;47.790;7.322;2023-04-01T15:25:42;98021.94;;;15.51;71.17
13241;BME280;6687;47.790;7.322;2023-04-01T15:28:19;98024.84;;;15.15;69.49
13241;BME280;6687;47.790;7.322;2023-04-01T15:30:53;98025.84;;;14.83;70.09
13241;BME280;6687;47.790;7.322;2023-04-01T15:33:31;98029.69;;;14.99;70.99
13241;BME280;6687;47.790;7.322;2023-04-01T15:36:05;98035.66;;;14.43;71.12
13241;BME280;6687;47.790;7.322;2023-04-01T15:38:43;98042.91;;;14.32;73.41
13241;BME280;6687;47.790;7.322;2023-04-01T15:41:14;98030.97;;;13.93;79.22
13241;BME280;6687;47.790;7.322;2023-04-01T15:43:44;98034.75;;;14.15;80.55
13241;BME280;6687;47.790;7.322;2023-04-01T15:46:43;98033.56;;;13.93;81.04
13241;BME280;6687;47.790;7.322;2023-04-01T15:49:28;98032.38;;;13.72;81.00
13241;BME280;6687;47.790;7.322;2023-04-01T15:52:06;98032.44;;;14.35;81.43
13241;BME280;6687;47.790;7.322;2023-04-01T15:55:03;98031.78;;;13.96;83.99
13241;BME280;6687;47.790;7.322;2023-04-01T15:57:41;98022.44;;;14.20;83.16
13241;BME280;6687;47.790;7.322;2023-04-01T16:00:25;98026.13;;;14.12;83.72
13241;BME280;6687;47.790;7.322;2023-04-01T16:03:13;98017.75;;;14.01;82.64
13241;BME280;6687;47.790;7.322;2023-04-01T16:05:51;98015.38;;;14.55;80.58
13241;BME280;6687;47.790;7.322;2023-04-01T16:08:40;98020.28;;;14.34;79.37
13241;BME280;6687;47.790;7.322;2023-04-01T16:11:19;98025.88;;;13.89;79.46
13241;BME280;6687;47.790;7.322;2023-04-01T16:13:57;98023.75;;;14.03;79.00
13241;BME280;6687;47.790;7.322;2023-04-01T16:16:40;98033.59;;;13.92;81.23
13241;BME280;6687;47.790;7.322;2023-04-01T16:19:28;98047.50;;;13.58;83.13
13241;BME280;6687;47.790;7.322;2023-04-01T16:22:02;98042.50;;;13.13;83.23
13241;BME280;6687;47.790;7.322;2023-04-01T16:24:35;98056.13;;;12.85;84.78
13241;BME280;6687;47.790;7.322;2023-04-01T16:27:11;98050.28;;;12.74;85.46
13241;BME280;6687;47.790;7.322;2023-04-01T16:29:46;98053.47;;;12.45;86.14
13241;BME280;6687;47.790;7.322;2023-04-01T16:35:28;98051.97;;;12.75;87.03
13241;BME280;6687;47.790;7.322;2023-04-01T16:38:00;98062.84;;;12.94;86.79
13241;BME280;6687;47.790;7.322;2023-04-01T16:40:40;98059.59;;;12.84;87.52
13241;BME280;6687;47.790;7.322;2023-04-01T16:43:20;98079.19;;;12.13;88.72
13241;BME280;6687;47.790;7.322;2023-04-01T16:46:05;98086.41;;;11.98;91.10
13241;BME280;6687;47.790;7.322;2023-04-01T16:48:52;98081.59;;;11.74;92.63
13241;BME280;6687;47.790;7.322;2023-04-01T16:51:24;98086.09;;;11.10;90.05
13241;BME280;6687;47.790;7.322;2023-04-01T16:54:02;98077.91;;;11.35;89.40
13241;BME280;6687;47.790;7.322;2023-04-01T16:56:38;98080.19;;;11.55;88.43
13241;BME280;6687;47.790;7.322;2023-04-01T16:59:15;98074.47;;;11.89;87.18
13241;BME280;6687;47.790;7.322;2023-04-01T17:01:49;98073.59;;;11.88;86.50
13241;BME280;6687;47.790;7.322;2023-04-01T17:04:26;98076.53;;;11.68;86.83
13241;BME280;6687;47.790;7.322;2023-04-01T17:06:55;98079.84;;;11.75;87.19
13241;BME280;6687;47.790;7.322;2023-04-01T17:09:34;98071.22;;;12.24;87.55
13241;BME280;6687;47.790;7.322;2023-04-01T17:12:10;98059.78;;;12.33;86.24
13241;BME280;6687;47.790;7.322;2023-04-01T17:14:45;98072.47;;;12.48;86.16
13241;BME280;6687;47.790;7.322;2023-04-01T17:17:23;98079.63;;;12.37;86.34
13241;BME280;6687;47.790;7.322;2023-04-01T17:20:12;98086.28;;;12.05;87.73
13241;BME280;6687;47.790;7.322;2023-04-01T17:22:45;98091.03;;;12.30;86.96
13241;BME280;6687;47.790;7.322;2023-04-01T17:25:31;98103.06;;;12.36;86.66
13241;BME280;6687;47.790;7.322;2023-04-01T17:28:08;98099.69;;;12.29;86.57
13241;BME280;6687;47.790;7.322;2023-04-01T17:30:40;98111.66;;;12.38;86.09
13241;BME280;6687;47.790;7.322;2023-04-01T17:33:37;98112.75;;;12.26;87.70
13241;BME280;6687;47.790;7.322;2023-04-01T17:36:18;98103.69;;;12.47;86.29
13241;BME280;6687;47.790;7.322;2023-04-01T17:39:00;98097.78;;;12.37;87.15
13241;BME280;6687;47.790;7.322;2023-04-01T17:41:37;98096.59;;;12.55;86.17
13241;BME280;6687;47.790;7.322;2023-04-01T17:44:17;98104.44;;;12.53;85.98
13241;BME280;6687;47.790;7.322;2023-04-01T17:47:00;98113.59;;;12.28;87.04
13241;BME280;6687;47.790;7.322;2023-04-01T17:49:34;98110.34;;;12.13;87.00
13241;BME280;6687;47.790;7.322;2023-04-01T17:52:09;98099.66;;;12.32;86.53
13241;BME280;6687;47.790;7.322;2023-04-01T17:54:48;98105.13;;;12.17;86.58
13241;BME280;6687;47.790;7.322;2023-04-01T17:57:33;98108.19;;;12.37;85.53
13241;BME280;6687;47.790;7.322;2023-04-01T18:00:18;98106.47;;;12.38;85.32
13241;BME280;6687;47.790;7.322;2023-04-01T18:02:51;98111.72;;;12.33;84.57
13241;BME280;6687;47.790;7.322;2023-04-01T18:05:26;98115.97;;;12.37;84.77
13241;BME280;6687;47.790;7.322;2023-04-01T18:08:11;98112.69;;;12.27;84.80
13241;BME280;6687;47.790;7.322;2023-04-01T18:10:48;98117.13;;;12.24;84.19
13241;BME280;6687;47.790;7.322;2023-04-01T18:13:44;98117.84;;;12.30;84.79
13241;BME280;6687;47.790;7.322;2023-04-01T18:16:26;98119.19;;;12.03;83.95
13241;BME280;6687;47.790;7.322;2023-04-01T18:19:02;98116.66;;;12.02;84.84
13241;BME280;6687;47.790;7.322;2023-04-01T18:21:36;98119.28;;;12.00;84.87
13241;BME280;6687;47.790;7.322;2023-04-01T18:24:15;98117.78;;;11.84;84.89
13241;BME280;6687;47.790;7.322;2023-04-01T18:26:44;98129.34;;;11.66;85.33
13241;BME280;6687;47.790;7.322;2023-04-01T18:29:20;98133.72;;;11.62;84.83
13241;BME280;6687;47.790;7.322;2023-04-01T18:31:52;98132.09;;;11.55;84.49
13241;BME280;6687;47.790;7.322;2023-04-01T18:34:41;98140.91;;;11.42;84.98
13241;BME280;6687;47.790;7.322;2023-04-01T18:37:17;98148.59;;;11.49;85.04
13241;BME280;6687;47.790;7.322;2023-04-01T18:39:49;98156.47;;;11.42;84.54
13241;BME280;6687;47.790;7.322;2023-04-01T18:42:24;98160.09;;;11.31;84.53
13241;BME280;6687;47.790;7.322;2023-04-01T18:44:59;98163.69;;;11.21;84.76
13241;BME280;6687;47.790;7.322;2023-04-01T18:47:36;98168.09;;;11.16;84.75
13241;BME280;6687;47.790;7.322;2023-04-01T18:50:18;98170.06;;;10.97;85.56
13241;BME280;6687;47.790;7.322;2023-04-01T18:52:50;98173.69;;;10.82;85.74
13241;BME280;6687;47.790;7.322;2023-04-01T18:55:24;98172.25;;;10.58;86.69
13241;BME280;6687;47.790;7.322;2023-04-01T18:58:06;98172.97;;;10.71;86.89
13241;BME280;6687;47.790;7.322;2023-04-01T19:00:40;98183.47;;;10.59;86.86
13241;BME280;6687;47.790;7.322;2023-04-01T19:03:15;98186.91;;;10.61;86.01
13241;BME280;6687;47.790;7.322;2023-04-01T19:05:48;98189.53;;;10.58;87.37
13241;BME280;6687;47.790;7.322;2023-04-01T19:08:26;98193.78;;;10.60;87.75
13241;BME280;6687;47.790;7.322;2023-04-01T19:11:01;98201.56;;;10.63;88.06
13241;BME280;6687;47.790;7.322;2023-04-01T19:13:41;98197.34;;;10.51;87.70
13241;BME280;6687;47.790;7.322;2023-04-01T19:16:16;98201.97;;;10.15;87.35
13241;BME280;6687;47.790;7.322;2023-04-01T19:19:01;98191.41;;;10.40;87.49
13241;BME280;6687;47.790;7.322;2023-04-01T19:21:35;98195.81;;;10.30;87.04
13241;BME280;6687;47.790;7.322;2023-04-01T19:26:57;98198.50;;;10.18;87.34
13241;BME280;6687;47.790;7.322;2023-04-01T19:29:37;98204.44;;;10.28;87.65
13241;BME280;6687;47.790;7.322;2023-04-01T19:32:14;98209.81;;;10.06;87.33
13241;BME280;6687;47.790;7.322;2023-04-01T19:34:53;98204.50;;;10.22;88.60
13241;BME280;6687;47.790;7.322;2023-04-01T19:37:32;98209.75;;;10.15;87.68
13241;BME280;6687;47.790;7.322;2023-04-01T19:40:20;98208.91;;;10.15;87.86
13241;BME280;6687;47.790;7.322;2023-04-01T19:42:56;98204.50;;;10.22;87.18
13241;BME280;6687;47.790;7.322;2023-04-01T19:45:33;98214.97;;;10.09;87.19
13241;BME280;6687;47.790;7.322;2023-04-01T19:48:07;98225.44;;;9.97;87.05
13241;BME280;6687;47.790;7.322;2023-04-01T19:50:44;98228.97;;;9.87;87.33
13241;BME280;6687;47.790;7.322;2023-04-01T19:53:19;98227.09;;;10.04;87.92
13241;BME280;6687;47.790;7.322;2023-04-01T19:55:56;98237.63;;;9.78;88.40
13241;BME280;6687;47.790;7.322;2023-04-01T19:58:32;98237.69;;;9.73;87.88
13241;BME280;6687;47.790;7.322;2023-04-01T20:01:00;98237.69;;;9.72;88.15
13241;BME280;6687;47.790;7.322;2023-04-01T20:03:34;98236.88;;;9.65;87.85
13241;BME280;6687;47.790;7.322;2023-04-01T20:06:14;98237.75;;;9.61;87.97
13241;BME280;6687;47.790;7.322;2023-04-01T20:08:51;98244.75;;;9.41;87.63
13241;BME280;6687;47.790;7.322;2023-04-01T20:11:34;98247.19;;;9.67;88.32
13241;BME280;6687;47.790;7.322;2023-04-01T20:14:12;98250.69;;;9.56;88.12
13241;BME280;6687;47.790;7.322;2023-04-01T20:16:59;98248.06;;;9.64;88.54
13241;BME280;6687;47.790;7.322;2023-04-01T20:19:33;98246.31;;;9.69;88.22
13241;BME280;6687;47.790;7.322;2023-04-01T20:22:04;98253.19;;;9.70;88.17
13241;BME280;6687;47.790;7.322;2023-04-01T20:24:41;98258.34;;;9.76;88.43
13241;BME280;6687;47.790;7.322;2023-04-01T20:27:16;98255.84;;;9.61;89.00
13241;BME280;6687;47.790;7.322;2023-04-01T20:29:59;98251.53;;;9.63;88.53
13241;BME280;6687;47.790;7.322;2023-04-01T20:32:52;98256.69;;;9.66;89.07
13241;BME280;6687;47.790;7.322;2023-04-01T20:35:43;98256.59;;;9.82;88.79
13241;BME280;6687;47.790;7.322;2023-04-01T20:38:45;98257.34;;;9.94;88.34
13241;BME280;6687;47.790;7.322;2023-04-01T20:41:22;98266.84;;;9.94;87.80
13241;BME280;6687;47.790;7.322;2023-04-01T20:44:03;98278.13;;;9.84;88.00
13241;BME280;6687;47.790;7.322;2023-04-01T20:46:39;98275.50;;;9.93;87.50
13241;BME280;6687;47.790;7.322;2023-04-01T20:49:25;98265.06;;;10.02;87.43
13241;BME280;6687;47.790;7.322;2023-04-01T20:51:54;98280.53;;;10.13;86.45
13241;BME280;6687;47.790;7.322;2023-04-01T20:54:36;98277.91;;;10.18;86.53
13241;BME280;6687;47.790;7.322;2023-04-01T20:57:12;98274.50;;;10.09;86.62
13241;BME280;6687;47.790;7.322;2023-04-01T20:59:59;98279.59;;;10.22;85.93
13241;BME280;6687;47.790;7.322;2023-04-01T21:02:42;98273.47;;;10.35;84.73
13241;BME280;6687;47.790;7.322;2023-04-01T21:05:49;98286.50;;;10.21;85.45
13241;BME280;6687;47.790;7.322;2023-04-01T21:08:27;98282.09;;;10.34;84.36
13241;BME280;6687;47.790;7.322;2023-04-01T21:11:03;98283.03;;;10.22;84.86
13241;BME280;6687;47.790;7.322;2023-04-01T21:13:50;98286.47;;;10.27;84.61
13241;BME280;6687;47.790;7.322;2023-04-01T21:16:29;98294.16;;;10.38;83.79
13241;BME280;6687;47.790;7.322;2023-04-01T21:19:08;98299.38;;;10.32;83.82
13241;BME280;6687;47.790;7.322;2023-04-01T21:21:50;98299.34;;;10.38;83.33